sensor_id;sensor_type;location;lat;lon;timestamp;P1;durP1;ratioP1;P2;durP2;ratioP2
29838;SDS011;18669;53.356;-1.464;2022-11-04T00:00:02;22.15;;;11.50;;
29838;SDS011;18669;53.356;-1.464;2022-11-04T00:02:28;24.17;;;11.75;;
29838;SDS011;18669;53.356;-1.464;2022-11-04T00:04:55;26.35;;;10.77;;
29838;SDS011;18669;53.356;-1.464;2022-11-04T00:07:21;25.75;;;12.25;;
29838;SDS011;18669;53.356;-1.464;2022-11-04T00:10:05;26.85;;;9.88;;
29838;SDS011;18669;53.356;-1.464;2022-11-04T00:12:32;23.77;;;10.18;;
29838;SDS011;18669;53.356;-1.464;2022-11-04T00:14:59;23.80;;;9.65;;
29838;SDS011;18669;53.356;-1.464;2022-11-04T00:17:44;26.10;;;10.38;;
29838;SDS011;18669;53.356;-1.464;2022-11-04T00:20:11;17.13;;;9.15;;
29838;SDS011;18669;53.356;-1.464;2022-11-04T00:22:55;21.10;;;9.38;;
29838;SDS011;18669;53.356;-1.464;2022-11-04T00:25:41;25.17;;;9.35;;
29838;SDS011;18669;53.356;-1.464;2022-11-04T00:28:25;20.45;;;9.45;;
29838;SDS011;18669;53.356;-1.464;2022-11-04T00:31:10;22.67;;;9.68;;
29838;SDS011;18669;53.356;-1.464;2022-11-04T00:33:56;20.25;;;8.85;;
29838;SDS011;18669;53.356;-1.464;2022-11-04T00:36:23;20.13;;;8.82;;
29838;SDS011;18669;53.356;-1.464;2022-11-04T00:38:50;16.20;;;8.75;;
29838;SDS011;18669;53.356;-1.464;2022-11-04T00:43:53;26.15;;;8.57;;
29838;SDS011;18669;53.356;-1.464;2022-11-04T00:46:28;19.73;;;8.75;;
29838;SDS011;18669;53.356;-1.464;2022-11-04T00:48:55;17.15;;;8.77;;
29838;SDS011;18669;53.356;-1.464;2022-11-04T00:53:48;20.57;;;8.23;;
29838;SDS011;18669;53.356;-1.464;2022-11-04T00:56:14;20.48;;;8.35;;
29838;SDS011;18669;53.356;-1.464;2022-11-04T00:58:41;18.92;;;8.43;;
29838;SDS011;18669;53.356;-1.464;2022-11-04T01:01:10;19.42;;;7.97;;
29838;SDS011;18669;53.356;-1.464;2022-11-04T01:03:38;27.52;;;8.80;;
29838;SDS011;18669;53.356;-1.464;2022-11-04T01:06:04;23.20;;;8.85;;
29838;SDS011;18669;53.356;-1.464;2022-11-04T01:10:59;22.50;;;8.73;;
29838;SDS011;18669;53.356;-1.464;2022-11-04T01:13:29;17.67;;;8.40;;
29838;SDS011;18669;53.356;-1.464;2022-11-04T01:15:57;22.17;;;8.68;;
29838;SDS011;18669;53.356;-1.464;2022-11-04T01:18:27;20.80;;;8.93;;
29838;SDS011;18669;53.356;-1.464;2022-11-04T01:20:53;18.60;;;8.90;;
29838;SDS011;18669;53.356;-1.464;2022-11-04T01:23:19;18.27;;;8.52;;
29838;SDS011;18669;53.356;-1.464;2022-11-04T01:25:49;19.70;;;8.20;;
29838;SDS011;18669;53.356;-1.464;2022-11-04T01:28:15;26.73;;;8.68;;
29838;SDS011;18669;53.356;-1.464;2022-11-04T01:33:07;25.23;;;8.70;;
29838;SDS011;18669;53.356;-1.464;2022-11-04T01:35:33;22.38;;;9.18;;
29838;SDS011;18669;53.356;-1.464;2022-11-04T01:37:59;29.88;;;10.00;;
29838;SDS011;18669;53.356;-1.464;2022-11-04T01:40:25;17.55;;;9.40;;
29838;SDS011;18669;53.356;-1.464;2022-11-04T01:42:52;25.75;;;9.52;;
29838;SDS011;18669;53.356;-1.464;2022-11-04T01:45:18;19.33;;;9.18;;
29838;SDS011;18669;53.356;-1.464;2022-11-04T01:48:20;19.63;;;9.40;;
29838;SDS011;18669;53.356;-1.464;2022-11-04T01:50:42;17.20;;;8.63;;
29838;SDS011;18669;53.356;-1.464;2022-11-04T01:53:10;20.25;;;8.88;;
29838;SDS011;18669;53.356;-1.464;2022-11-04T01:55:45;24.15;;;8.93;;
29838;SDS011;18669;53.356;-1.464;2022-11-04T01:58:17;25.87;;;8.90;;
29838;SDS011;18669;53.356;-1.464;2022-11-04T02:00:47;17.65;;;7.55;;
29838;SDS011;18669;53.356;-1.464;2022-11-04T02:03:15;19.17;;;8.23;;
29838;SDS011;18669;53.356;-1.464;2022-11-04T02:05:45;24.05;;;8.88;;
29838;SDS011;18669;53.356;-1.464;2022-11-04T02:08:13;21.42;;;8.88;;
29838;SDS011;18669;53.356;-1.464;2022-11-04T02:10:41;20.88;;;8.75;;
29838;SDS011;18669;53.356;-1.464;2022-11-04T02:13:14;27.88;;;9.07;;
29838;SDS011;18669;53.356;-1.464;2022-11-04T02:15:50;18.42;;;7.97;;
29838;SDS011;18669;53.356;-1.464;2022-11-04T02:31:57;18.13;;;7.53;;
29838;SDS011;18669;53.356;-1.464;2022-11-04T02:39:54;15.27;;;7.72;;
29838;SDS011;18669;53.356;-1.464;2022-11-04T02:45:32;17.05;;;8.30;;
29838;SDS011;18669;53.356;-1.464;2022-11-04T02:51:12;20.10;;;8.02;;
29838;SDS011;18669;53.356;-1.464;2022-11-04T02:54:06;19.60;;;7.75;;
29838;SDS011;18669;53.356;-1.464;2022-11-04T02:56:37;18.33;;;8.73;;
29838;SDS011;18669;53.356;-1.464;2022-11-04T02:59:09;19.17;;;7.68;;
29838;SDS011;18669;53.356;-1.464;2022-11-04T03:01:40;17.48;;;7.60;;
29838;SDS011;18669;53.356;-1.464;2022-11-04T03:04:12;14.45;;;7.30;;
29838;SDS011;18669;53.356;-1.464;2022-11-04T03:06:42;17.42;;;7.50;;
29838;SDS011;18669;53.356;-1.464;2022-11-04T03:09:12;19.10;;;7.53;;
29838;SDS011;18669;53.356;-1.464;2022-11-04T03:11:42;20.63;;;7.50;;
29838;SDS011;18669;53.356;-1.464;2022-11-04T03:14:12;14.43;;;7.18;;
29838;SDS011;18669;53.356;-1.464;2022-11-04T03:17:00;25.10;;;7.18;;
29838;SDS011;18669;53.356;-1.464;2022-11-04T03:22:28;16.20;;;6.85;;
29838;SDS011;18669;53.356;-1.464;2022-11-04T03:24:58;16.25;;;6.90;;
29838;SDS011;18669;53.356;-1.464;2022-11-04T03:27:34;16.60;;;6.97;;
29838;SDS011;18669;53.356;-1.464;2022-11-04T03:30:16;13.02;;;6.68;;
29838;SDS011;18669;53.356;-1.464;2022-11-04T03:35:10;15.48;;;6.75;;
29838;SDS011;18669;53.356;-1.464;2022-11-04T03:37:38;16.95;;;6.60;;
29838;SDS011;18669;53.356;-1.464;2022-11-04T03:40:04;14.52;;;6.00;;
29838;SDS011;18669;53.356;-1.464;2022-11-04T03:42:31;16.17;;;6.45;;
29838;SDS011;18669;53.356;-1.464;2022-11-04T03:45:02;13.25;;;5.93;;
29838;SDS011;18669;53.356;-1.464;2022-11-04T03:47:29;20.90;;;6.05;;
29838;SDS011;18669;53.356;-1.464;2022-11-04T03:52:28;13.25;;;5.75;;
29838;SDS011;18669;53.356;-1.464;2022-11-04T03:54:54;10.27;;;5.30;;
29838;SDS011;18669;53.356;-1.464;2022-11-04T03:57:38;10.50;;;5.20;;
29838;SDS011;18669;53.356;-1.464;2022-11-04T04:00:21;13.07;;;5.15;;
29838;SDS011;18669;53.356;-1.464;2022-11-04T04:03:04;16.17;;;5.47;;
29838;SDS011;18669;53.356;-1.464;2022-11-04T04:16:38;15.77;;;5.00;;
29838;SDS011;18669;53.356;-1.464;2022-11-04T04:19:19;17.70;;;5.25;;
29838;SDS011;18669;53.356;-1.464;2022-11-04T04:21:59;19.80;;;5.07;;
29838;SDS011;18669;53.356;-1.464;2022-11-04T04:24:30;14.45;;;5.05;;
29838;SDS011;18669;53.356;-1.464;2022-11-04T04:27:19;14.35;;;4.88;;
29838;SDS011;18669;53.356;-1.464;2022-11-04T04:32:23;8.43;;;4.18;;
29838;SDS011;18669;53.356;-1.464;2022-11-04T04:34:52;14.50;;;4.45;;
29838;SDS011;18669;53.356;-1.464;2022-11-04T04:37:38;10.25;;;4.40;;
29838;SDS011;18669;53.356;-1.464;2022-11-04T04:40:07;9.73;;;4.47;;
29838;SDS011;18669;53.356;-1.464;2022-11-04T04:42:56;11.35;;;4.00;;
29838;SDS011;18669;53.356;-1.464;2022-11-04T04:45:41;6.72;;;4.18;;
29838;SDS011;18669;53.356;-1.464;2022-11-04T04:48:12;10.70;;;4.25;;
29838;SDS011;18669;53.356;-1.464;2022-11-04T04:50:45;13.63;;;3.95;;
29838;SDS011;18669;53.356;-1.464;2022-11-04T04:53:14;16.92;;;4.20;;
29838;SDS011;18669;53.356;-1.464;2022-11-04T04:55:40;10.82;;;3.78;;
29838;SDS011;18669;53.356;-1.464;2022-11-04T04:58:08;8.15;;;4.47;;
29838;SDS011;18669;53.356;-1.464;2022-11-04T05:00:34;8.32;;;4.20;;
29838;SDS011;18669;53.356;-1.464;2022-11-04T05:03:00;11.50;;;4.00;;
29838;SDS011;18669;53.356;-1.464;2022-11-04T05:05:26;8.93;;;3.83;;
29838;SDS011;18669;53.356;-1.464;2022-11-04T05:07:52;13.50;;;4.05;;
29838;SDS011;18669;53.356;-1.464;2022-11-04T05:10:22;13.27;;;4.45;;
29838;SDS011;18669;53.356;-1.464;2022-11-04T05:12:48;6.78;;;3.80;;
29838;SDS011;18669;53.356;-1.464;2022-11-04T05:15:33;10.25;;;3.60;;
29838;SDS011;18669;53.356;-1.464;2022-11-04T05:18:01;8.52;;;3.65;;
29838;SDS011;18669;53.356;-1.464;2022-11-04T05:20:28;9.02;;;3.85;;
29838;SDS011;18669;53.356;-1.464;2022-11-04T05:22:54;8.40;;;3.75;;
29838;SDS011;18669;53.356;-1.464;2022-11-04T05:25:20;12.20;;;3.67;;
29838;SDS011;18669;53.356;-1.464;2022-11-04T05:27:47;14.07;;;3.85;;
29838;SDS011;18669;53.356;-1.464;2022-11-04T05:30:13;8.80;;;3.92;;
29838;SDS011;18669;53.356;-1.464;2022-11-04T05:32:39;8.70;;;3.70;;
29838;SDS011;18669;53.356;-1.464;2022-11-04T05:35:05;11.02;;;3.40;;
29838;SDS011;18669;53.356;-1.464;2022-11-04T05:37:31;8.23;;;3.42;;
29838;SDS011;18669;53.356;-1.464;2022-11-04T05:39:57;13.38;;;4.15;;
29838;SDS011;18669;53.356;-1.464;2022-11-04T05:42:23;12.90;;;3.33;;
29838;SDS011;18669;53.356;-1.464;2022-11-04T05:44:49;13.27;;;3.45;;
29838;SDS011;18669;53.356;-1.464;2022-11-04T05:47:15;10.05;;;3.55;;
29838;SDS011;18669;53.356;-1.464;2022-11-04T05:49:41;11.15;;;3.53;;
29838;SDS011;18669;53.356;-1.464;2022-11-04T05:52:07;12.10;;;3.40;;
29838;SDS011;18669;53.356;-1.464;2022-11-04T05:57:01;7.28;;;3.20;;
29838;SDS011;18669;53.356;-1.464;2022-11-04T05:59:29;5.53;;;3.20;;
29838;SDS011;18669;53.356;-1.464;2022-11-04T06:01:55;8.40;;;3.00;;
29838;SDS011;18669;53.356;-1.464;2022-11-04T06:04:21;12.75;;;3.53;;
29838;SDS011;18669;53.356;-1.464;2022-11-04T06:06:47;15.23;;;2.97;;
29838;SDS011;18669;53.356;-1.464;2022-11-04T06:09:13;8.85;;;3.20;;
29838;SDS011;18669;53.356;-1.464;2022-11-04T06:11:39;5.97;;;3.00;;
29838;SDS011;18669;53.356;-1.464;2022-11-04T06:14:05;5.35;;;2.92;;
29838;SDS011;18669;53.356;-1.464;2022-11-04T06:18:57;6.70;;;2.50;;
29838;SDS011;18669;53.356;-1.464;2022-11-04T06:21:28;9.25;;;2.88;;
29838;SDS011;18669;53.356;-1.464;2022-11-04T06:23:56;8.10;;;2.90;;
29838;SDS011;18669;53.356;-1.464;2022-11-04T06:26:27;7.47;;;2.55;;
29838;SDS011;18669;53.356;-1.464;2022-11-04T06:28:55;9.85;;;2.60;;
29838;SDS011;18669;53.356;-1.464;2022-11-04T06:31:22;7.80;;;2.80;;
29838;SDS011;18669;53.356;-1.464;2022-11-04T06:36:15;6.25;;;2.42;;
29838;SDS011;18669;53.356;-1.464;2022-11-04T06:38:41;9.43;;;2.95;;
29838;SDS011;18669;53.356;-1.464;2022-11-04T06:41:10;7.53;;;2.42;;
29838;SDS011;18669;53.356;-1.464;2022-11-04T06:43:38;5.25;;;2.55;;
29838;SDS011;18669;53.356;-1.464;2022-11-04T06:46:04;6.03;;;2.85;;
29838;SDS011;18669;53.356;-1.464;2022-11-04T06:48:30;11.52;;;3.33;;
29838;SDS011;18669;53.356;-1.464;2022-11-04T06:50:59;6.90;;;2.50;;
29838;SDS011;18669;53.356;-1.464;2022-11-04T06:53:26;8.18;;;2.38;;
29838;SDS011;18669;53.356;-1.464;2022-11-04T06:58:18;6.80;;;2.47;;
29838;SDS011;18669;53.356;-1.464;2022-11-04T07:00:51;8.40;;;2.38;;
29838;SDS011;18669;53.356;-1.464;2022-11-04T07:03:18;3.83;;;1.90;;
29838;SDS011;18669;53.356;-1.464;2022-11-04T07:05:44;4.75;;;2.65;;
29838;SDS011;18669;53.356;-1.464;2022-11-04T07:08:10;5.03;;;2.55;;
29838;SDS011;18669;53.356;-1.464;2022-11-04T07:10:36;9.05;;;3.03;;
29838;SDS011;18669;53.356;-1.464;2022-11-04T07:13:02;3.40;;;1.92;;
29838;SDS011;18669;53.356;-1.464;2022-11-04T07:15:28;8.45;;;2.50;;
29838;SDS011;18669;53.356;-1.464;2022-11-04T07:17:54;3.80;;;2.35;;
29838;SDS011;18669;53.356;-1.464;2022-11-04T07:20:20;8.40;;;2.80;;
29838;SDS011;18669;53.356;-1.464;2022-11-04T07:22:46;6.90;;;2.28;;
29838;SDS011;18669;53.356;-1.464;2022-11-04T07:25:13;5.90;;;2.25;;
29838;SDS011;18669;53.356;-1.464;2022-11-04T07:27:39;4.75;;;1.75;;
29838;SDS011;18669;53.356;-1.464;2022-11-04T07:30:06;7.88;;;2.33;;
29838;SDS011;18669;53.356;-1.464;2022-11-04T07:32:32;6.78;;;2.20;;
29838;SDS011;18669;53.356;-1.464;2022-11-04T07:34:58;6.20;;;2.17;;
29838;SDS011;18669;53.356;-1.464;2022-11-04T07:37:24;8.65;;;2.72;;
29838;SDS011;18669;53.356;-1.464;2022-11-04T07:39:50;8.68;;;3.00;;
29838;SDS011;18669;53.356;-1.464;2022-11-04T07:42:17;6.78;;;2.25;;
29838;SDS011;18669;53.356;-1.464;2022-11-04T07:44:43;9.05;;;2.72;;
29838;SDS011;18669;53.356;-1.464;2022-11-04T07:47:09;6.35;;;2.03;;
29838;SDS011;18669;53.356;-1.464;2022-11-04T07:49:35;8.02;;;2.20;;
29838;SDS011;18669;53.356;-1.464;2022-11-04T07:52:01;9.05;;;2.30;;
29838;SDS011;18669;53.356;-1.464;2022-11-04T07:54:28;8.43;;;1.92;;
29838;SDS011;18669;53.356;-1.464;2022-11-04T07:56:54;6.97;;;2.08;;
29838;SDS011;18669;53.356;-1.464;2022-11-04T07:59:20;8.27;;;1.95;;
29838;SDS011;18669;53.356;-1.464;2022-11-04T08:01:46;8.70;;;1.95;;
29838;SDS011;18669;53.356;-1.464;2022-11-04T08:04:13;4.47;;;1.75;;
29838;SDS011;18669;53.356;-1.464;2022-11-04T08:06:39;16.80;;;2.72;;
29838;SDS011;18669;53.356;-1.464;2022-11-04T08:09:05;5.25;;;1.95;;
29838;SDS011;18669;53.356;-1.464;2022-11-04T08:11:31;4.50;;;2.15;;
29838;SDS011;18669;53.356;-1.464;2022-11-04T08:13:57;2.10;;;1.35;;
29838;SDS011;18669;53.356;-1.464;2022-11-04T08:16:23;6.90;;;2.28;;
29838;SDS011;18669;53.356;-1.464;2022-11-04T08:18:50;5.03;;;2.10;;
29838;SDS011;18669;53.356;-1.464;2022-11-04T08:21:17;6.95;;;1.90;;
29838;SDS011;18669;53.356;-1.464;2022-11-04T08:23:45;8.05;;;1.83;;
29838;SDS011;18669;53.356;-1.464;2022-11-04T08:26:16;8.30;;;2.17;;
29838;SDS011;18669;53.356;-1.464;2022-11-04T08:28:43;6.35;;;2.28;;
29838;SDS011;18669;53.356;-1.464;2022-11-04T08:31:12;9.20;;;2.95;;
29838;SDS011;18669;53.356;-1.464;2022-11-04T08:33:41;4.90;;;2.55;;
29838;SDS011;18669;53.356;-1.464;2022-11-04T08:36:15;11.05;;;3.05;;
29838;SDS011;18669;53.356;-1.464;2022-11-04T08:38:43;7.93;;;3.50;;
29838;SDS011;18669;53.356;-1.464;2022-11-04T08:41:10;8.02;;;4.10;;
29838;SDS011;18669;53.356;-1.464;2022-11-04T08:43:38;28.02;;;17.45;;
29838;SDS011;18669;53.356;-1.464;2022-11-04T08:46:05;14.70;;;7.93;;
29838;SDS011;18669;53.356;-1.464;2022-11-04T08:48:33;7.47;;;3.90;;
29838;SDS011;18669;53.356;-1.464;2022-11-04T08:50:59;12.63;;;4.60;;
29838;SDS011;18669;53.356;-1.464;2022-11-04T08:53:26;11.68;;;6.72;;
29838;SDS011;18669;53.356;-1.464;2022-11-04T08:55:52;17.25;;;7.60;;
29838;SDS011;18669;53.356;-1.464;2022-11-04T08:58:18;17.52;;;8.60;;
29838;SDS011;18669;53.356;-1.464;2022-11-04T09:00:45;11.82;;;2.75;;
29838;SDS011;18669;53.356;-1.464;2022-11-04T09:05:37;8.57;;;2.60;;
29838;SDS011;18669;53.356;-1.464;2022-11-04T09:08:13;3.80;;;1.52;;
29838;SDS011;18669;53.356;-1.464;2022-11-04T09:10:43;6.85;;;1.45;;
29838;SDS011;18669;53.356;-1.464;2022-11-04T09:13:10;2.83;;;1.25;;
29838;SDS011;18669;53.356;-1.464;2022-11-04T09:15:37;9.88;;;1.40;;
29838;SDS011;18669;53.356;-1.464;2022-11-04T09:18:05;3.15;;;1.10;;
29838;SDS011;18669;53.356;-1.464;2022-11-04T09:20:32;4.20;;;0.98;;
29838;SDS011;18669;53.356;-1.464;2022-11-04T09:22:58;6.22;;;1.40;;
29838;SDS011;18669;53.356;-1.464;2022-11-04T09:25:25;5.45;;;0.98;;
29838;SDS011;18669;53.356;-1.464;2022-11-04T09:27:51;3.72;;;1.13;;
29838;SDS011;18669;53.356;-1.464;2022-11-04T09:30:17;4.40;;;1.27;;
29838;SDS011;18669;53.356;-1.464;2022-11-04T09:35:09;2.45;;;1.00;;
29838;SDS011;18669;53.356;-1.464;2022-11-04T09:37:36;3.53;;;1.00;;
29838;SDS011;18669;53.356;-1.464;2022-11-04T09:40:02;2.88;;;1.10;;
29838;SDS011;18669;53.356;-1.464;2022-11-04T09:45:21;4.28;;;1.52;;
29838;SDS011;18669;53.356;-1.464;2022-11-04T09:47:52;4.75;;;1.10;;
29838;SDS011;18669;53.356;-1.464;2022-11-04T09:50:24;5.40;;;1.00;;
29838;SDS011;18669;53.356;-1.464;2022-11-04T09:53:07;3.75;;;1.00;;
29838;SDS011;18669;53.356;-1.464;2022-11-04T09:58:26;6.90;;;0.93;;
29838;SDS011;18669;53.356;-1.464;2022-11-04T10:07:14;2.10;;;1.17;;
29838;SDS011;18669;53.356;-1.464;2022-11-04T10:09:58;11.25;;;4.20;;
29838;SDS011;18669;53.356;-1.464;2022-11-04T10:15:39;10.65;;;3.95;;
29838;SDS011;18669;53.356;-1.464;2022-11-04T10:18:34;4.93;;;2.55;;
29838;SDS011;18669;53.356;-1.464;2022-11-04T10:24:08;4.50;;;2.20;;
29838;SDS011;18669;53.356;-1.464;2022-11-04T10:26:46;4.75;;;1.35;;
29838;SDS011;18669;53.356;-1.464;2022-11-04T10:32:21;8.23;;;3.47;;
29838;SDS011;18669;53.356;-1.464;2022-11-04T10:34:56;1.63;;;1.20;;
29838;SDS011;18669;53.356;-1.464;2022-11-04T10:37:28;4.50;;;1.15;;
29838;SDS011;18669;53.356;-1.464;2022-11-04T10:40:37;1.00;;;0.73;;
29838;SDS011;18669;53.356;-1.464;2022-11-04T10:43:01;3.03;;;0.85;;
29838;SDS011;18669;53.356;-1.464;2022-11-04T10:45:36;3.67;;;1.10;;
29838;SDS011;18669;53.356;-1.464;2022-11-04T10:48:15;4.70;;;0.70;;
29838;SDS011;18669;53.356;-1.464;2022-11-04T10:50:56;7.47;;;1.08;;
29838;SDS011;18669;53.356;-1.464;2022-11-04T10:53:24;2.28;;;1.00;;
29838;SDS011;18669;53.356;-1.464;2022-11-04T10:58:36;6.13;;;0.90;;
29838;SDS011;18669;53.356;-1.464;2022-11-04T11:04:12;2.60;;;1.10;;
29838;SDS011;18669;53.356;-1.464;2022-11-04T11:06:50;3.75;;;0.70;;
29838;SDS011;18669;53.356;-1.464;2022-11-04T11:09:34;7.05;;;0.77;;
29838;SDS011;18669;53.356;-1.464;2022-11-04T11:14:38;1.45;;;0.93;;
29838;SDS011;18669;53.356;-1.464;2022-11-04T11:17:34;9.07;;;1.55;;
29838;SDS011;18669;53.356;-1.464;2022-11-04T11:22:40;7.00;;;0.95;;
29838;SDS011;18669;53.356;-1.464;2022-11-04T11:28:08;2.20;;;0.93;;
29838;SDS011;18669;53.356;-1.464;2022-11-04T11:33:22;2.92;;;1.30;;
29838;SDS011;18669;53.356;-1.464;2022-11-04T11:35:55;3.17;;;1.10;;
29838;SDS011;18669;53.356;-1.464;2022-11-04T11:38:30;3.78;;;1.15;;
29838;SDS011;18669;53.356;-1.464;2022-11-04T11:41:16;1.48;;;1.00;;
29838;SDS011;18669;53.356;-1.464;2022-11-04T11:43:51;2.15;;;0.95;;
29838;SDS011;18669;53.356;-1.464;2022-11-04T11:46:24;4.22;;;1.77;;
29838;SDS011;18669;53.356;-1.464;2022-11-04T11:48:53;9.45;;;5.13;;
29838;SDS011;18669;53.356;-1.464;2022-11-04T11:56:38;3.50;;;1.50;;
29838;SDS011;18669;53.356;-1.464;2022-11-04T11:59:19;3.40;;;1.10;;
29838;SDS011;18669;53.356;-1.464;2022-11-04T12:04:53;3.95;;;1.67;;
29838;SDS011;18669;53.356;-1.464;2022-11-04T12:07:34;3.97;;;2.00;;
29838;SDS011;18669;53.356;-1.464;2022-11-04T12:13:12;4.03;;;1.50;;
29838;SDS011;18669;53.356;-1.464;2022-11-04T12:16:15;4.50;;;1.73;;
29838;SDS011;18669;53.356;-1.464;2022-11-04T12:21:54;3.20;;;1.40;;
29838;SDS011;18669;53.356;-1.464;2022-11-04T12:30:05;6.93;;;2.00;;
29838;SDS011;18669;53.356;-1.464;2022-11-04T12:32:39;3.60;;;1.33;;
29838;SDS011;18669;53.356;-1.464;2022-11-04T12:35:51;3.55;;;1.33;;
29838;SDS011;18669;53.356;-1.464;2022-11-04T12:41:44;7.78;;;1.80;;
29838;SDS011;18669;53.356;-1.464;2022-11-04T12:50:08;9.07;;;1.60;;
29838;SDS011;18669;53.356;-1.464;2022-11-04T12:59:04;2.58;;;0.93;;
29838;SDS011;18669;53.356;-1.464;2022-11-04T13:01:37;2.20;;;1.10;;
29838;SDS011;18669;53.356;-1.464;2022-11-04T13:09:18;7.22;;;2.40;;
29838;SDS011;18669;53.356;-1.464;2022-11-04T13:17:31;7.25;;;1.48;;
29838;SDS011;18669;53.356;-1.464;2022-11-04T13:20:04;3.67;;;1.73;;
29838;SDS011;18669;53.356;-1.464;2022-11-04T13:22:47;5.72;;;1.80;;
29838;SDS011;18669;53.356;-1.464;2022-11-04T13:28:12;5.53;;;1.70;;
29838;SDS011;18669;53.356;-1.464;2022-11-04T13:30:44;3.63;;;1.70;;
29838;SDS011;18669;53.356;-1.464;2022-11-04T13:36:14;5.43;;;1.67;;
29838;SDS011;18669;53.356;-1.464;2022-11-04T13:39:12;5.63;;;1.77;;
29838;SDS011;18669;53.356;-1.464;2022-11-04T13:41:57;11.38;;;2.22;;
29838;SDS011;18669;53.356;-1.464;2022-11-04T13:44:39;2.95;;;1.65;;
29838;SDS011;18669;53.356;-1.464;2022-11-04T13:47:14;5.50;;;1.90;;
29838;SDS011;18669;53.356;-1.464;2022-11-04T13:49:51;8.63;;;2.17;;
29838;SDS011;18669;53.356;-1.464;2022-11-04T13:52:23;9.20;;;2.28;;
29838;SDS011;18669;53.356;-1.464;2022-11-04T13:54:56;5.38;;;2.70;;
29838;SDS011;18669;53.356;-1.464;2022-11-04T13:57:28;5.22;;;3.20;;
29838;SDS011;18669;53.356;-1.464;2022-11-04T14:00:23;8.20;;;2.60;;
29838;SDS011;18669;53.356;-1.464;2022-11-04T14:02:52;6.60;;;2.50;;
29838;SDS011;18669;53.356;-1.464;2022-11-04T14:16:05;4.22;;;1.60;;
29838;SDS011;18669;53.356;-1.464;2022-11-04T14:18:37;5.82;;;1.50;;
29838;SDS011;18669;53.356;-1.464;2022-11-04T14:21:08;3.35;;;1.60;;
29838;SDS011;18669;53.356;-1.464;2022-11-04T14:23:40;3.70;;;1.60;;
29838;SDS011;18669;53.356;-1.464;2022-11-04T14:26:08;4.05;;;1.50;;
29838;SDS011;18669;53.356;-1.464;2022-11-04T14:28:37;4.68;;;1.85;;
29838;SDS011;18669;53.356;-1.464;2022-11-04T14:31:10;3.13;;;1.27;;
29838;SDS011;18669;53.356;-1.464;2022-11-04T14:33:40;5.38;;;1.35;;
29838;SDS011;18669;53.356;-1.464;2022-11-04T14:46:34;2.00;;;1.10;;
29838;SDS011;18669;53.356;-1.464;2022-11-04T14:49:06;5.40;;;1.58;;
29838;SDS011;18669;53.356;-1.464;2022-11-04T14:51:39;1.95;;;1.00;;
29838;SDS011;18669;53.356;-1.464;2022-11-04T14:54:18;7.05;;;1.10;;
29838;SDS011;18669;53.356;-1.464;2022-11-04T14:56:46;4.57;;;1.63;;
29838;SDS011;18669;53.356;-1.464;2022-11-04T14:59:21;2.97;;;1.13;;
29838;SDS011;18669;53.356;-1.464;2022-11-04T15:01:50;5.72;;;0.68;;
29838;SDS011;18669;53.356;-1.464;2022-11-04T15:06:56;5.25;;;0.88;;
29838;SDS011;18669;53.356;-1.464;2022-11-04T15:09:27;1.95;;;0.82;;
29838;SDS011;18669;53.356;-1.464;2022-11-04T15:12:01;3.88;;;1.08;;
29838;SDS011;18669;53.356;-1.464;2022-11-04T15:15:00;6.22;;;0.95;;
29838;SDS011;18669;53.356;-1.464;2022-11-04T15:19:58;4.88;;;1.45;;
29838;SDS011;18669;53.356;-1.464;2022-11-04T15:22:27;5.45;;;1.70;;
29838;SDS011;18669;53.356;-1.464;2022-11-04T15:24:55;4.80;;;1.05;;
29838;SDS011;18669;53.356;-1.464;2022-11-04T15:27:29;9.25;;;1.17;;
29838;SDS011;18669;53.356;-1.464;2022-11-04T15:29:59;3.78;;;0.73;;
29838;SDS011;18669;53.356;-1.464;2022-11-04T15:32:31;3.92;;;1.10;;
29838;SDS011;18669;53.356;-1.464;2022-11-04T15:34:58;7.13;;;1.20;;
29838;SDS011;18669;53.356;-1.464;2022-11-04T15:37:27;9.52;;;1.35;;
29838;SDS011;18669;53.356;-1.464;2022-11-04T15:39:56;10.38;;;1.60;;
29838;SDS011;18669;53.356;-1.464;2022-11-04T15:42:27;4.10;;;1.00;;
29838;SDS011;18669;53.356;-1.464;2022-11-04T15:48:19;3.55;;;1.52;;
29838;SDS011;18669;53.356;-1.464;2022-11-04T15:51:04;6.28;;;1.50;;
29838;SDS011;18669;53.356;-1.464;2022-11-04T15:56:32;4.13;;;1.52;;
29838;SDS011;18669;53.356;-1.464;2022-11-04T15:59:07;5.82;;;1.02;;
29838;SDS011;18669;53.356;-1.464;2022-11-04T16:01:43;4.47;;;1.10;;
29838;SDS011;18669;53.356;-1.464;2022-11-04T16:04:11;6.40;;;1.27;;
29838;SDS011;18669;53.356;-1.464;2022-11-04T16:06:38;7.40;;;1.10;;
29838;SDS011;18669;53.356;-1.464;2022-11-04T16:11:52;13.20;;;3.10;;
29838;SDS011;18669;53.356;-1.464;2022-11-04T16:14:33;10.20;;;3.05;;
29838;SDS011;18669;53.356;-1.464;2022-11-04T16:17:00;6.15;;;1.67;;
29838;SDS011;18669;53.356;-1.464;2022-11-04T16:19:27;6.50;;;1.60;;
29838;SDS011;18669;53.356;-1.464;2022-11-04T16:22:02;4.88;;;1.70;;
29838;SDS011;18669;53.356;-1.464;2022-11-04T16:24:32;5.80;;;1.30;;
29838;SDS011;18669;53.356;-1.464;2022-11-04T16:27:01;6.88;;;2.25;;
29838;SDS011;18669;53.356;-1.464;2022-11-04T16:29:31;8.85;;;3.00;;
29838;SDS011;18669;53.356;-1.464;2022-11-04T16:32:17;5.88;;;2.03;;
29838;SDS011;18669;53.356;-1.464;2022-11-04T16:34:51;11.82;;;3.13;;
29838;SDS011;18669;53.356;-1.464;2022-11-04T16:37:18;6.72;;;2.50;;
29838;SDS011;18669;53.356;-1.464;2022-11-04T16:39:45;4.20;;;1.70;;
29838;SDS011;18669;53.356;-1.464;2022-11-04T16:44:49;12.82;;;3.58;;
29838;SDS011;18669;53.356;-1.464;2022-11-04T16:47:18;12.82;;;3.72;;
29838;SDS011;18669;53.356;-1.464;2022-11-04T16:49:44;28.10;;;6.38;;
29838;SDS011;18669;53.356;-1.464;2022-11-04T16:52:13;16.27;;;5.60;;
29838;SDS011;18669;53.356;-1.464;2022-11-04T16:54:45;15.90;;;4.15;;
29838;SDS011;18669;53.356;-1.464;2022-11-04T16:57:13;8.40;;;3.53;;
29838;SDS011;18669;53.356;-1.464;2022-11-04T16:59:40;8.25;;;3.95;;
29838;SDS011;18669;53.356;-1.464;2022-11-04T17:02:27;12.23;;;3.30;;
29838;SDS011;18669;53.356;-1.464;2022-11-04T17:04:59;8.52;;;2.55;;
29838;SDS011;18669;53.356;-1.464;2022-11-04T17:09:51;9.52;;;3.00;;
29838;SDS011;18669;53.356;-1.464;2022-11-04T17:12:18;11.45;;;3.00;;
29838;SDS011;18669;53.356;-1.464;2022-11-04T17:14:51;9.25;;;2.60;;
29838;SDS011;18669;53.356;-1.464;2022-11-04T17:19:43;9.07;;;2.60;;
29838;SDS011;18669;53.356;-1.464;2022-11-04T17:22:10;6.18;;;2.45;;
29838;SDS011;18669;53.356;-1.464;2022-11-04T17:24:36;4.88;;;2.22;;
29838;SDS011;18669;53.356;-1.464;2022-11-04T17:27:03;8.82;;;2.38;;
29838;SDS011;18669;53.356;-1.464;2022-11-04T17:29:29;15.45;;;2.78;;
29838;SDS011;18669;53.356;-1.464;2022-11-04T17:31:56;9.13;;;2.72;;
29838;SDS011;18669;53.356;-1.464;2022-11-04T17:36:54;5.10;;;2.35;;
29838;SDS011;18669;53.356;-1.464;2022-11-04T17:39:20;8.20;;;2.38;;
29838;SDS011;18669;53.356;-1.464;2022-11-04T17:41:49;6.60;;;2.20;;
29838;SDS011;18669;53.356;-1.464;2022-11-04T17:44:34;6.78;;;2.50;;
29838;SDS011;18669;53.356;-1.464;2022-11-04T17:49:28;9.43;;;2.50;;
29838;SDS011;18669;53.356;-1.464;2022-11-04T17:51:56;3.75;;;1.80;;
29838;SDS011;18669;53.356;-1.464;2022-11-04T17:54:26;4.28;;;2.20;;
29838;SDS011;18669;53.356;-1.464;2022-11-04T17:56:55;5.15;;;1.90;;
29838;SDS011;18669;53.356;-1.464;2022-11-04T17:59:22;6.55;;;2.40;;
29838;SDS011;18669;53.356;-1.464;2022-11-04T18:01:48;8.57;;;4.22;;
29838;SDS011;18669;53.356;-1.464;2022-11-04T18:04:18;8.05;;;4.00;;
29838;SDS011;18669;53.356;-1.464;2022-11-04T18:06:47;10.85;;;2.92;;
29838;SDS011;18669;53.356;-1.464;2022-11-04T18:09:14;6.90;;;3.53;;
29838;SDS011;18669;53.356;-1.464;2022-11-04T18:11:41;10.75;;;4.30;;
29838;SDS011;18669;53.356;-1.464;2022-11-04T18:14:26;10.70;;;4.72;;
29838;SDS011;18669;53.356;-1.464;2022-11-04T18:16:53;12.23;;;6.43;;
29838;SDS011;18669;53.356;-1.464;2022-11-04T18:19:20;10.63;;;5.55;;